createdAt,value
2022-11-29T00:06:17.250Z,74.42
2022-11-29T00:16:21.841Z,75.53
2022-11-29T00:26:25.292Z,75.82
2022-11-29T00:36:29.894Z,75.42
2022-11-29T00:46:33.080Z,77.02
2022-11-29T00:56:37.562Z,77.39
2022-11-29T01:06:40.838Z,79.88
2022-11-29T01:16:45.406Z,76.40
2022-11-29T01:26:48.615Z,76.18
2022-11-29T01:36:53.207Z,75.10
2022-11-29T01:46:57.220Z,75.12
2022-11-29T01:57:03.976Z,71.70
2022-11-29T02:07:07.110Z,70.10
2022-11-29T02:17:19.854Z,69.71
2022-11-29T02:27:53.746Z,69.16
2022-11-29T02:38:23.116Z,72.76
2022-11-29T02:48:41.479Z,72.66
2022-11-29T02:58:50.288Z,72.66
2022-11-29T03:08:57.121Z,71.93
2022-11-29T03:19:07.031Z,70.84
2022-11-29T03:29:13.814Z,72.13
2022-11-29T03:39:20.197Z,72.10
2022-11-29T03:49:27.632Z,70.30
2022-11-29T03:59:48.438Z,70.23
2022-11-29T04:10:03.458Z,69.97
2022-11-29T04:20:47.829Z,69.88
2022-11-29T04:31:02.360Z,69.60
2022-11-29T04:41:45.016Z,68.81
2022-11-29T04:51:55.153Z,69.21
2022-11-29T05:02:06.392Z,69.15
2022-11-29T05:12:18.236Z,69.12
2022-11-29T05:22:26.918Z,68.81
2022-11-29T05:32:40.764Z,69.14
2022-11-29T05:42:58.350Z,70.70
2022-11-29T05:53:09.183Z,69.29
2022-11-29T06:03:17.392Z,68.48
2022-11-29T06:13:32.600Z,69.25
2022-11-29T06:23:53.092Z,69.04
2022-11-29T06:34:03.879Z,69.30
2022-11-29T06:44:08.064Z,69.16
2022-11-29T06:54:21.130Z,70.28
2022-11-29T07:04:45.844Z,69.69
2022-11-29T07:14:51.524Z,74.73
2022-11-29T07:24:59.847Z,73.43
2022-11-29T07:35:10.244Z,69.93
2022-11-29T07:45:17.553Z,71.79
2022-11-29T07:55:22.918Z,72.57
2022-11-29T08:05:25.963Z,69.24
2022-11-29T08:15:30.455Z,70.10
2022-11-29T08:25:33.499Z,69.05
2022-11-29T08:35:39.140Z,68.05
2022-11-29T08:45:42.246Z,71.88
2022-11-29T08:55:48.758Z,69.25
2022-11-29T09:05:52.606Z,68.53
2022-11-29T09:15:57.572Z,70.91
2022-11-29T09:26:00.679Z,68.00
2022-11-29T09:36:05.843Z,67.59
2022-11-29T09:46:19.693Z,66.62
2022-11-29T09:56:30.332Z,66.34
2022-11-29T10:06:38.798Z,66.45
2022-11-29T10:16:45.969Z,65.79
2022-11-29T10:26:49.099Z,65.62
2022-11-29T10:36:55.139Z,65.12
2022-11-29T10:46:58.399Z,65.75
2022-11-29T10:57:03.194Z,65.96
2022-11-29T11:07:07.434Z,65.66
2022-11-29T11:17:26.121Z,65.51
2022-11-29T11:27:34.189Z,65.20
2022-11-29T11:37:38.748Z,63.81
2022-11-29T11:47:44.615Z,64.08
2022-11-29T11:57:49.189Z,64.20
2022-11-29T12:08:11.818Z,63.24
2022-11-29T12:18:19.776Z,63.11
2022-11-29T12:28:25.355Z,62.67
2022-11-29T12:38:46.047Z,62.92
2022-11-29T12:48:58.265Z,61.52
2022-11-29T12:59:16.701Z,61.56
2022-11-29T13:09:45.604Z,61.42
2022-11-29T13:19:53.943Z,61.36
2022-11-29T13:29:57.235Z,61.36
2022-11-29T13:40:10.779Z,63.28
2022-11-29T13:50:38.807Z,61.87
2022-11-29T14:00:51.552Z,62.02
2022-11-29T14:10:56.651Z,61.99
2022-11-29T14:21:01.146Z,61.57
2022-11-29T14:31:05.384Z,61.58
2022-11-29T14:41:22.067Z,61.86
2022-11-29T14:51:26.849Z,61.97
2022-11-29T15:01:31.393Z,62.28
2022-11-29T15:11:42.187Z,62.41
2022-11-29T15:21:52.534Z,62.49
2022-11-29T15:31:57.952Z,63.13
2022-11-29T15:42:03.607Z,63.10
2022-11-29T15:52:10.862Z,63.41
2022-11-29T16:02:20.175Z,63.94
2022-11-29T16:12:23.427Z,64.21
2022-11-29T16:22:27.903Z,64.15
2022-11-29T16:32:32.773Z,64.44
2022-11-29T16:42:37.223Z,65.40
2022-11-29T16:52:40.547Z,66.09
2022-11-29T17:02:46.496Z,65.07
2022-11-29T17:12:50.175Z,66.63
2022-11-29T17:22:54.904Z,65.37
2022-11-29T17:32:58.034Z,64.88
2022-11-29T17:43:02.768Z,64.72
2022-11-29T17:53:06.599Z,64.88
2022-11-29T18:03:11.337Z,64.86
2022-11-29T18:13:14.671Z,65.56
2022-11-29T18:23:19.819Z,65.27
2022-11-29T18:33:23.525Z,64.93
2022-11-29T18:43:28.379Z,66.25
2022-11-29T18:53:32.054Z,66.00
2022-11-29T19:03:38.624Z,65.63
2022-11-29T19:13:42.516Z,65.68
2022-11-29T19:23:52.712Z,67.17
2022-11-29T19:33:58.283Z,66.90
2022-11-29T19:44:04.448Z,66.27
2022-11-29T19:54:09.248Z,66.78
2022-11-29T20:04:16.702Z,66.75
2022-11-29T20:14:20.050Z,67.37
2022-11-29T20:24:24.751Z,67.85
2022-11-29T20:34:28.595Z,68.17
2022-11-29T20:44:38.678Z,67.21
2022-11-29T20:54:42.844Z,67.60
2022-11-29T21:04:47.991Z,68.17
2022-11-29T21:14:52.231Z,67.41
2022-11-29T21:25:02.667Z,66.73
2022-11-29T21:35:06.773Z,67.31
2022-11-29T21:45:15.659Z,66.72
2022-11-29T21:55:19.226Z,66.99
2022-11-29T22:05:23.799Z,67.80
2022-11-29T22:15:27.234Z,71.73
2022-11-29T22:25:31.618Z,68.65
2022-11-29T22:35:34.764Z,70.70
2022-11-29T22:45:39.311Z,69.74
2022-11-29T22:55:42.458Z,68.53
2022-11-29T23:05:46.984Z,67.62
2022-11-29T23:15:50.207Z,68.15
2022-11-29T23:25:54.611Z,67.08
2022-11-29T23:36:02.255Z,67.40
2022-11-29T23:46:09.356Z,66.77
2022-11-29T23:56:15.247Z,66.80
